Startpagina
METAR-TAF:

METAR-TAF

Vliegvelden :

Amman, Jordanië

breedte: 31-59N, lengte: 035-59E, hoogte: 767 m

Actueel weer

Dit bericht is 16 minuten geleden gemaakt, om 12:00 UTC
Wind 6 kt uit het noordwesten
Temperatuur 32°C
Vochtigheid 26%
Druk 1013 hPa
Zicht: 6000 m
Weinig wolken op 3000 ft

METAR: OJAM 241200Z 31006KT 6000 FEW030 32/10 Q1013 NOSIG

Tijdstip: 15:16 (12:16 UTC)

Verwachting

Dit bericht is 19 uur en het 26 minuten geleden gemaakt, om 16:50 UTC
Verwachting geldig van 23 om 18 UTC tot 25 om 06 UTC
Wind 6 kt uit het westnoordwesten
Zicht: 5000 m
Heiigheid
Tijdelijke
van 24 om 02 UTC tot 24 om 06 UTC
Wind 2 kt uit variabele richting

TAF: OJAM 231650Z 2318/2506 30006KT 5000 HZ NSC TEMPO 2402/2406 VRB02KT

Waarnemingen en weersverwachtingen van meer dan 4000 vliegvelden (METAR en TAF).

De beschikbare stations zijn de gele en rode punten op de kaart.

Ga met uw muis naar het station om de naam te zien.

Klik dan om waarnemingen en weersverwachtingen te zien.

kaart wijzigen: klik op de groene knoppen met een zwart kruis om in te zoomen, op de groene knop met een streepje om uit te zoomen of op de groene pijlen voor aangrenzende kaarten.


METAR-TAF: